sensor_id;sensor_type;location;lat;lon;timestamp;P1;durP1;ratioP1;P2;durP2;ratioP2
27632;SDS011;15046;50.930;13.334;2023-09-07T00:00:14;12.35;;;7.93;;
27632;SDS011;15046;50.930;13.334;2023-09-07T00:02:40;12.10;;;7.15;;
27632;SDS011;15046;50.930;13.334;2023-09-07T00:05:06;12.23;;;7.82;;
27632;SDS011;15046;50.930;13.334;2023-09-07T00:07:33;12.02;;;7.93;;
27632;SDS011;15046;50.930;13.334;2023-09-07T00:09:59;10.80;;;8.13;;
27632;SDS011;15046;50.930;13.334;2023-09-07T00:12:25;10.25;;;8.30;;
27632;SDS011;15046;50.930;13.334;2023-09-07T00:14:52;9.90;;;7.47;;
27632;SDS011;15046;50.930;13.334;2023-09-07T00:17:22;15.68;;;8.55;;
27632;SDS011;15046;50.930;13.334;2023-09-07T00:19:48;10.75;;;7.55;;
27632;SDS011;15046;50.930;13.334;2023-09-07T00:22:15;12.02;;;8.18;;
27632;SDS011;15046;50.930;13.334;2023-09-07T00:24:42;11.77;;;7.80;;
27632;SDS011;15046;50.930;13.334;2023-09-07T00:27:08;11.88;;;7.82;;
27632;SDS011;15046;50.930;13.334;2023-09-07T00:29:36;10.32;;;7.63;;
27632;SDS011;15046;50.930;13.334;2023-09-07T00:32:02;11.65;;;8.30;;
27632;SDS011;15046;50.930;13.334;2023-09-07T00:34:29;10.93;;;8.38;;
27632;SDS011;15046;50.930;13.334;2023-09-07T00:36:54;11.00;;;7.82;;
27632;SDS011;15046;50.930;13.334;2023-09-07T00:39:21;11.50;;;8.52;;
27632;SDS011;15046;50.930;13.334;2023-09-07T00:41:47;12.50;;;8.52;;
27632;SDS011;15046;50.930;13.334;2023-09-07T00:44:13;12.07;;;7.93;;
27632;SDS011;15046;50.930;13.334;2023-09-07T00:46:39;11.57;;;7.97;;
27632;SDS011;15046;50.930;13.334;2023-09-07T00:49:04;12.75;;;8.32;;
27632;SDS011;15046;50.930;13.334;2023-09-07T00:51:30;14.05;;;8.15;;
27632;SDS011;15046;50.930;13.334;2023-09-07T00:53:57;14.45;;;8.68;;
27632;SDS011;15046;50.930;13.334;2023-09-07T00:56:25;10.63;;;8.60;;
27632;SDS011;15046;50.930;13.334;2023-09-07T00:58:52;11.98;;;8.90;;
27632;SDS011;15046;50.930;13.334;2023-09-07T01:01:19;10.75;;;8.18;;
27632;SDS011;15046;50.930;13.334;2023-09-07T01:03:47;13.32;;;8.27;;
27632;SDS011;15046;50.930;13.334;2023-09-07T01:06:14;11.73;;;8.52;;
27632;SDS011;15046;50.930;13.334;2023-09-07T01:08:44;11.30;;;8.43;;
27632;SDS011;15046;50.930;13.334;2023-09-07T01:11:18;10.77;;;8.00;;
27632;SDS011;15046;50.930;13.334;2023-09-07T01:13:51;12.32;;;8.55;;
27632;SDS011;15046;50.930;13.334;2023-09-07T01:16:19;11.88;;;8.23;;
27632;SDS011;15046;50.930;13.334;2023-09-07T01:18:46;10.43;;;8.30;;
27632;SDS011;15046;50.930;13.334;2023-09-07T01:21:12;12.90;;;8.20;;
27632;SDS011;15046;50.930;13.334;2023-09-07T01:23:42;12.10;;;7.80;;
27632;SDS011;15046;50.930;13.334;2023-09-07T01:26:09;11.25;;;8.13;;
27632;SDS011;15046;50.930;13.334;2023-09-07T01:28:36;10.95;;;8.07;;
27632;SDS011;15046;50.930;13.334;2023-09-07T01:31:03;13.82;;;9.18;;
27632;SDS011;15046;50.930;13.334;2023-09-07T01:33:29;11.57;;;8.05;;
27632;SDS011;15046;50.930;13.334;2023-09-07T01:35:55;10.60;;;8.05;;
27632;SDS011;15046;50.930;13.334;2023-09-07T01:38:21;12.25;;;8.52;;
27632;SDS011;15046;50.930;13.334;2023-09-07T01:40:47;10.80;;;8.10;;
27632;SDS011;15046;50.930;13.334;2023-09-07T01:43:13;11.20;;;7.97;;
27632;SDS011;15046;50.930;13.334;2023-09-07T01:45:39;12.35;;;8.05;;
27632;SDS011;15046;50.930;13.334;2023-09-07T01:48:08;10.73;;;8.40;;
27632;SDS011;15046;50.930;13.334;2023-09-07T01:50:37;9.63;;;7.63;;
27632;SDS011;15046;50.930;13.334;2023-09-07T01:53:03;12.95;;;8.30;;
27632;SDS011;15046;50.930;13.334;2023-09-07T01:55:30;9.05;;;7.25;;
27632;SDS011;15046;50.930;13.334;2023-09-07T01:57:56;11.15;;;8.57;;
27632;SDS011;15046;50.930;13.334;2023-09-07T02:00:22;11.45;;;8.05;;
27632;SDS011;15046;50.930;13.334;2023-09-07T02:02:48;10.98;;;7.68;;
27632;SDS011;15046;50.930;13.334;2023-09-07T02:05:14;12.68;;;8.68;;
27632;SDS011;15046;50.930;13.334;2023-09-07T02:07:40;11.13;;;8.13;;
27632;SDS011;15046;50.930;13.334;2023-09-07T02:10:06;13.32;;;7.60;;
27632;SDS011;15046;50.930;13.334;2023-09-07T02:12:32;12.25;;;8.68;;
27632;SDS011;15046;50.930;13.334;2023-09-07T02:14:59;11.15;;;8.00;;
27632;SDS011;15046;50.930;13.334;2023-09-07T02:17:26;10.90;;;7.60;;
27632;SDS011;15046;50.930;13.334;2023-09-07T02:19:52;12.40;;;8.77;;
27632;SDS011;15046;50.930;13.334;2023-09-07T02:22:17;13.80;;;8.38;;
27632;SDS011;15046;50.930;13.334;2023-09-07T02:24:43;10.13;;;7.43;;
27632;SDS011;15046;50.930;13.334;2023-09-07T02:27:09;11.02;;;8.20;;
27632;SDS011;15046;50.930;13.334;2023-09-07T02:29:35;11.32;;;8.35;;
27632;SDS011;15046;50.930;13.334;2023-09-07T02:32:01;9.98;;;7.15;;
27632;SDS011;15046;50.930;13.334;2023-09-07T02:34:27;9.35;;;7.10;;
27632;SDS011;15046;50.930;13.334;2023-09-07T02:36:52;11.45;;;7.82;;
27632;SDS011;15046;50.930;13.334;2023-09-07T02:39:18;11.00;;;8.00;;
27632;SDS011;15046;50.930;13.334;2023-09-07T02:41:45;11.38;;;8.50;;
27632;SDS011;15046;50.930;13.334;2023-09-07T02:44:11;10.13;;;7.20;;
27632;SDS011;15046;50.930;13.334;2023-09-07T02:46:37;10.07;;;7.82;;
27632;SDS011;15046;50.930;13.334;2023-09-07T02:49:02;11.18;;;7.63;;
27632;SDS011;15046;50.930;13.334;2023-09-07T02:51:28;10.80;;;7.22;;
27632;SDS011;15046;50.930;13.334;2023-09-07T02:53:55;10.70;;;7.85;;
27632;SDS011;15046;50.930;13.334;2023-09-07T02:56:22;11.18;;;7.40;;
27632;SDS011;15046;50.930;13.334;2023-09-07T02:58:47;10.70;;;8.00;;
27632;SDS011;15046;50.930;13.334;2023-09-07T03:01:13;10.05;;;7.15;;
27632;SDS011;15046;50.930;13.334;2023-09-07T03:03:39;11.70;;;7.90;;
27632;SDS011;15046;50.930;13.334;2023-09-07T03:06:09;11.40;;;7.72;;
27632;SDS011;15046;50.930;13.334;2023-09-07T03:08:39;8.90;;;7.18;;
27632;SDS011;15046;50.930;13.334;2023-09-07T03:11:06;12.18;;;8.40;;
27632;SDS011;15046;50.930;13.334;2023-09-07T03:13:32;10.65;;;7.53;;
27632;SDS011;15046;50.930;13.334;2023-09-07T03:15:58;11.43;;;7.10;;
27632;SDS011;15046;50.930;13.334;2023-09-07T03:18:25;10.70;;;7.05;;
27632;SDS011;15046;50.930;13.334;2023-09-07T03:20:52;10.75;;;7.85;;
27632;SDS011;15046;50.930;13.334;2023-09-07T03:23:20;10.23;;;7.05;;
27632;SDS011;15046;50.930;13.334;2023-09-07T03:25:46;11.00;;;6.90;;
27632;SDS011;15046;50.930;13.334;2023-09-07T03:28:13;9.27;;;7.07;;
27632;SDS011;15046;50.930;13.334;2023-09-07T03:30:38;9.00;;;6.57;;
27632;SDS011;15046;50.930;13.334;2023-09-07T03:33:04;10.32;;;6.97;;
27632;SDS011;15046;50.930;13.334;2023-09-07T03:35:31;13.10;;;7.03;;
27632;SDS011;15046;50.930;13.334;2023-09-07T03:37:57;12.02;;;7.68;;
27632;SDS011;15046;50.930;13.334;2023-09-07T03:40:23;10.95;;;8.07;;
27632;SDS011;15046;50.930;13.334;2023-09-07T03:42:49;14.25;;;8.18;;
27632;SDS011;15046;50.930;13.334;2023-09-07T03:45:15;11.23;;;8.75;;
27632;SDS011;15046;50.930;13.334;2023-09-07T03:47:41;11.68;;;8.18;;
27632;SDS011;15046;50.930;13.334;2023-09-07T03:50:07;14.32;;;7.53;;
27632;SDS011;15046;50.930;13.334;2023-09-07T03:52:33;13.82;;;8.38;;
27632;SDS011;15046;50.930;13.334;2023-09-07T03:55:00;12.70;;;8.27;;
27632;SDS011;15046;50.930;13.334;2023-09-07T03:57:26;10.90;;;8.02;;
27632;SDS011;15046;50.930;13.334;2023-09-07T03:59:53;14.07;;;8.57;;
27632;SDS011;15046;50.930;13.334;2023-09-07T04:02:22;12.45;;;8.40;;
27632;SDS011;15046;50.930;13.334;2023-09-07T04:04:54;10.55;;;7.38;;
27632;SDS011;15046;50.930;13.334;2023-09-07T04:07:20;10.32;;;8.00;;
27632;SDS011;15046;50.930;13.334;2023-09-07T04:09:46;12.35;;;8.43;;
27632;SDS011;15046;50.930;13.334;2023-09-07T04:12:12;12.73;;;8.80;;
27632;SDS011;15046;50.930;13.334;2023-09-07T04:14:38;11.80;;;8.15;;
27632;SDS011;15046;50.930;13.334;2023-09-07T04:17:04;14.70;;;8.52;;
27632;SDS011;15046;50.930;13.334;2023-09-07T04:19:30;12.38;;;8.65;;
27632;SDS011;15046;50.930;13.334;2023-09-07T04:21:56;15.63;;;8.55;;
27632;SDS011;15046;50.930;13.334;2023-09-07T04:24:23;19.23;;;8.68;;
27632;SDS011;15046;50.930;13.334;2023-09-07T04:26:49;16.73;;;8.63;;
27632;SDS011;15046;50.930;13.334;2023-09-07T04:29:15;14.82;;;9.27;;
27632;SDS011;15046;50.930;13.334;2023-09-07T04:31:41;12.35;;;8.55;;
27632;SDS011;15046;50.930;13.334;2023-09-07T04:34:07;16.15;;;8.73;;
27632;SDS011;15046;50.930;13.334;2023-09-07T04:36:33;13.38;;;8.90;;
27632;SDS011;15046;50.930;13.334;2023-09-07T04:38:59;14.93;;;8.15;;
27632;SDS011;15046;50.930;13.334;2023-09-07T04:41:24;22.95;;;9.65;;
27632;SDS011;15046;50.930;13.334;2023-09-07T04:43:50;18.63;;;8.90;;
27632;SDS011;15046;50.930;13.334;2023-09-07T04:46:16;23.60;;;10.05;;
27632;SDS011;15046;50.930;13.334;2023-09-07T04:48:42;18.10;;;8.70;;
27632;SDS011;15046;50.930;13.334;2023-09-07T04:51:09;16.20;;;9.30;;
27632;SDS011;15046;50.930;13.334;2023-09-07T04:53:36;22.15;;;10.23;;
27632;SDS011;15046;50.930;13.334;2023-09-07T04:56:03;16.33;;;9.88;;
27632;SDS011;15046;50.930;13.334;2023-09-07T04:58:30;15.77;;;9.27;;
27632;SDS011;15046;50.930;13.334;2023-09-07T05:01:02;12.85;;;8.55;;
27632;SDS011;15046;50.930;13.334;2023-09-07T05:03:33;12.13;;;8.50;;
27632;SDS011;15046;50.930;13.334;2023-09-07T05:06:00;12.25;;;8.27;;
27632;SDS011;15046;50.930;13.334;2023-09-07T05:08:28;13.82;;;8.07;;
27632;SDS011;15046;50.930;13.334;2023-09-07T05:10:54;14.02;;;8.27;;
27632;SDS011;15046;50.930;13.334;2023-09-07T05:13:22;14.00;;;8.43;;
27632;SDS011;15046;50.930;13.334;2023-09-07T05:15:48;12.95;;;8.27;;
27632;SDS011;15046;50.930;13.334;2023-09-07T05:18:16;14.02;;;8.75;;
27632;SDS011;15046;50.930;13.334;2023-09-07T05:20:42;13.63;;;8.48;;
27632;SDS011;15046;50.930;13.334;2023-09-07T05:23:13;14.82;;;9.68;;
27632;SDS011;15046;50.930;13.334;2023-09-07T05:25:44;11.55;;;8.18;;
27632;SDS011;15046;50.930;13.334;2023-09-07T05:28:10;13.40;;;9.00;;
27632;SDS011;15046;50.930;13.334;2023-09-07T05:30:37;15.18;;;10.18;;
27632;SDS011;15046;50.930;13.334;2023-09-07T05:33:03;14.60;;;9.50;;
27632;SDS011;15046;50.930;13.334;2023-09-07T05:35:29;17.33;;;9.75;;
27632;SDS011;15046;50.930;13.334;2023-09-07T05:37:57;13.10;;;8.98;;
27632;SDS011;15046;50.930;13.334;2023-09-07T05:40:23;16.83;;;9.40;;
27632;SDS011;15046;50.930;13.334;2023-09-07T05:42:49;14.77;;;8.68;;
27632;SDS011;15046;50.930;13.334;2023-09-07T05:45:15;12.77;;;8.88;;
27632;SDS011;15046;50.930;13.334;2023-09-07T05:47:41;11.98;;;8.55;;
27632;SDS011;15046;50.930;13.334;2023-09-07T05:50:07;11.77;;;8.55;;
27632;SDS011;15046;50.930;13.334;2023-09-07T05:52:34;10.82;;;7.55;;
27632;SDS011;15046;50.930;13.334;2023-09-07T05:54:59;12.52;;;8.60;;
27632;SDS011;15046;50.930;13.334;2023-09-07T05:57:25;13.18;;;8.25;;
27632;SDS011;15046;50.930;13.334;2023-09-07T05:59:51;12.45;;;8.57;;
27632;SDS011;15046;50.930;13.334;2023-09-07T06:02:17;10.27;;;7.50;;
27632;SDS011;15046;50.930;13.334;2023-09-07T06:04:43;10.82;;;7.32;;
27632;SDS011;15046;50.930;13.334;2023-09-07T06:07:08;14.55;;;7.47;;
27632;SDS011;15046;50.930;13.334;2023-09-07T06:09:34;11.02;;;7.45;;
27632;SDS011;15046;50.930;13.334;2023-09-07T06:12:01;12.52;;;7.70;;
27632;SDS011;15046;50.930;13.334;2023-09-07T06:14:28;11.05;;;7.07;;
27632;SDS011;15046;50.930;13.334;2023-09-07T06:16:54;9.18;;;6.60;;
27632;SDS011;15046;50.930;13.334;2023-09-07T06:19:19;10.52;;;6.75;;
27632;SDS011;15046;50.930;13.334;2023-09-07T06:21:45;12.82;;;6.68;;
27632;SDS011;15046;50.930;13.334;2023-09-07T06:24:11;9.23;;;7.20;;
27632;SDS011;15046;50.930;13.334;2023-09-07T06:26:37;10.20;;;6.85;;
27632;SDS011;15046;50.930;13.334;2023-09-07T06:29:03;12.75;;;6.63;;
27632;SDS011;15046;50.930;13.334;2023-09-07T06:31:29;16.10;;;7.50;;
27632;SDS011;15046;50.930;13.334;2023-09-07T06:33:54;14.95;;;7.05;;
27632;SDS011;15046;50.930;13.334;2023-09-07T06:36:20;11.38;;;6.43;;
27632;SDS011;15046;50.930;13.334;2023-09-07T06:38:46;9.52;;;5.75;;
27632;SDS011;15046;50.930;13.334;2023-09-07T06:41:12;7.53;;;5.30;;
27632;SDS011;15046;50.930;13.334;2023-09-07T06:43:38;7.97;;;5.63;;
27632;SDS011;15046;50.930;13.334;2023-09-07T06:46:06;8.38;;;5.40;;
27632;SDS011;15046;50.930;13.334;2023-09-07T06:48:35;10.55;;;6.10;;
27632;SDS011;15046;50.930;13.334;2023-09-07T06:51:04;8.63;;;5.88;;
27632;SDS011;15046;50.930;13.334;2023-09-07T06:53:31;9.00;;;5.60;;
27632;SDS011;15046;50.930;13.334;2023-09-07T06:55:58;9.27;;;5.93;;
27632;SDS011;15046;50.930;13.334;2023-09-07T06:58:24;10.48;;;6.20;;
27632;SDS011;15046;50.930;13.334;2023-09-07T07:00:50;7.60;;;5.43;;
27632;SDS011;15046;50.930;13.334;2023-09-07T07:03:16;9.80;;;5.13;;
27632;SDS011;15046;50.930;13.334;2023-09-07T07:05:41;9.07;;;5.38;;
27632;SDS011;15046;50.930;13.334;2023-09-07T07:08:07;7.93;;;5.63;;
27632;SDS011;15046;50.930;13.334;2023-09-07T07:10:34;7.43;;;5.40;;
27632;SDS011;15046;50.930;13.334;2023-09-07T07:13:00;7.18;;;4.90;;
27632;SDS011;15046;50.930;13.334;2023-09-07T07:15:26;10.13;;;5.63;;
27632;SDS011;15046;50.930;13.334;2023-09-07T07:17:51;9.40;;;5.35;;
27632;SDS011;15046;50.930;13.334;2023-09-07T07:20:17;7.47;;;5.03;;
27632;SDS011;15046;50.930;13.334;2023-09-07T07:22:43;9.57;;;5.50;;
27632;SDS011;15046;50.930;13.334;2023-09-07T07:25:10;9.98;;;5.22;;
27632;SDS011;15046;50.930;13.334;2023-09-07T07:27:35;9.27;;;5.45;;
27632;SDS011;15046;50.930;13.334;2023-09-07T07:30:01;6.75;;;5.30;;
27632;SDS011;15046;50.930;13.334;2023-09-07T07:32:28;8.77;;;5.72;;
27632;SDS011;15046;50.930;13.334;2023-09-07T07:34:54;8.82;;;5.65;;
27632;SDS011;15046;50.930;13.334;2023-09-07T07:37:20;7.65;;;5.55;;
27632;SDS011;15046;50.930;13.334;2023-09-07T07:39:45;8.20;;;5.43;;
27632;SDS011;15046;50.930;13.334;2023-09-07T07:42:11;7.40;;;5.15;;
27632;SDS011;15046;50.930;13.334;2023-09-07T07:44:37;6.80;;;4.75;;
27632;SDS011;15046;50.930;13.334;2023-09-07T07:47:03;7.00;;;5.22;;
27632;SDS011;15046;50.930;13.334;2023-09-07T07:49:29;8.63;;;4.90;;
27632;SDS011;15046;50.930;13.334;2023-09-07T07:51:56;7.70;;;5.10;;
27632;SDS011;15046;50.930;13.334;2023-09-07T07:54:23;6.28;;;5.13;;
27632;SDS011;15046;50.930;13.334;2023-09-07T07:56:50;8.18;;;5.35;;
27632;SDS011;15046;50.930;13.334;2023-09-07T07:59:15;8.95;;;5.07;;
27632;SDS011;15046;50.930;13.334;2023-09-07T08:01:41;7.97;;;4.82;;
27632;SDS011;15046;50.930;13.334;2023-09-07T08:04:08;10.35;;;5.47;;
27632;SDS011;15046;50.930;13.334;2023-09-07T08:06:33;8.00;;;4.70;;
27632;SDS011;15046;50.930;13.334;2023-09-07T08:08:59;7.90;;;4.70;;
27632;SDS011;15046;50.930;13.334;2023-09-07T08:11:26;8.98;;;4.97;;
27632;SDS011;15046;50.930;13.334;2023-09-07T08:13:52;6.72;;;4.68;;
27632;SDS011;15046;50.930;13.334;2023-09-07T08:16:18;6.70;;;4.47;;
27632;SDS011;15046;50.930;13.334;2023-09-07T08:18:44;7.90;;;4.85;;
27632;SDS011;15046;50.930;13.334;2023-09-07T08:21:10;8.38;;;4.43;;
27632;SDS011;15046;50.930;13.334;2023-09-07T08:23:37;7.05;;;4.13;;
27632;SDS011;15046;50.930;13.334;2023-09-07T08:26:03;8.13;;;4.88;;
27632;SDS011;15046;50.930;13.334;2023-09-07T08:28:30;8.60;;;4.05;;
27632;SDS011;15046;50.930;13.334;2023-09-07T08:30:56;9.27;;;4.68;;
27632;SDS011;15046;50.930;13.334;2023-09-07T08:33:24;7.30;;;4.20;;
27632;SDS011;15046;50.930;13.334;2023-09-07T08:35:58;6.60;;;4.38;;
27632;SDS011;15046;50.930;13.334;2023-09-07T08:38:25;6.60;;;4.47;;
27632;SDS011;15046;50.930;13.334;2023-09-07T08:40:53;6.25;;;4.03;;
27632;SDS011;15046;50.930;13.334;2023-09-07T08:45:55;7.43;;;4.22;;
27632;SDS011;15046;50.930;13.334;2023-09-07T08:48:27;6.67;;;4.53;;
27632;SDS011;15046;50.930;13.334;2023-09-07T08:50:56;6.82;;;4.22;;
27632;SDS011;15046;50.930;13.334;2023-09-07T08:53:22;6.85;;;4.00;;
27632;SDS011;15046;50.930;13.334;2023-09-07T08:55:48;6.63;;;4.00;;
27632;SDS011;15046;50.930;13.334;2023-09-07T08:58:14;6.38;;;3.95;;
27632;SDS011;15046;50.930;13.334;2023-09-07T09:00:41;10.15;;;4.10;;
27632;SDS011;15046;50.930;13.334;2023-09-07T09:03:08;7.60;;;4.25;;
27632;SDS011;15046;50.930;13.334;2023-09-07T09:05:35;6.32;;;4.38;;
27632;SDS011;15046;50.930;13.334;2023-09-07T09:08:06;6.90;;;4.20;;
27632;SDS011;15046;50.930;13.334;2023-09-07T09:10:32;6.68;;;3.72;;
27632;SDS011;15046;50.930;13.334;2023-09-07T09:12:58;5.45;;;4.00;;
27632;SDS011;15046;50.930;13.334;2023-09-07T09:15:26;5.82;;;4.28;;
27632;SDS011;15046;50.930;13.334;2023-09-07T09:17:52;9.50;;;4.03;;
27632;SDS011;15046;50.930;13.334;2023-09-07T09:20:22;8.48;;;4.30;;
27632;SDS011;15046;50.930;13.334;2023-09-07T09:22:52;4.70;;;3.22;;
27632;SDS011;15046;50.930;13.334;2023-09-07T09:27:45;6.10;;;3.50;;
27632;SDS011;15046;50.930;13.334;2023-09-07T09:30:12;5.93;;;3.22;;
27632;SDS011;15046;50.930;13.334;2023-09-07T09:32:40;6.07;;;4.00;;
27632;SDS011;15046;50.930;13.334;2023-09-07T09:35:07;6.57;;;3.53;;
27632;SDS011;15046;50.930;13.334;2023-09-07T09:37:42;5.63;;;3.38;;
27632;SDS011;15046;50.930;13.334;2023-09-07T09:40:13;7.07;;;3.30;;
27632;SDS011;15046;50.930;13.334;2023-09-07T09:42:40;8.90;;;3.17;;
27632;SDS011;15046;50.930;13.334;2023-09-07T09:45:07;5.43;;;3.28;;
27632;SDS011;15046;50.930;13.334;2023-09-07T09:47:37;5.35;;;3.53;;
27632;SDS011;15046;50.930;13.334;2023-09-07T09:52:31;6.78;;;3.72;;
27632;SDS011;15046;50.930;13.334;2023-09-07T09:55:00;5.68;;;3.17;;
27632;SDS011;15046;50.930;13.334;2023-09-07T09:57:26;5.93;;;3.50;;
27632;SDS011;15046;50.930;13.334;2023-09-07T09:59:54;6.28;;;3.55;;
27632;SDS011;15046;50.930;13.334;2023-09-07T10:02:20;6.20;;;3.60;;
27632;SDS011;15046;50.930;13.334;2023-09-07T10:04:47;4.85;;;3.40;;
27632;SDS011;15046;50.930;13.334;2023-09-07T10:07:13;5.70;;;3.30;;
27632;SDS011;15046;50.930;13.334;2023-09-07T10:09:39;5.15;;;3.53;;
27632;SDS011;15046;50.930;13.334;2023-09-07T10:12:05;7.25;;;3.15;;
27632;SDS011;15046;50.930;13.334;2023-09-07T10:14:40;6.53;;;3.60;;
27632;SDS011;15046;50.930;13.334;2023-09-07T10:17:08;5.32;;;3.67;;
27632;SDS011;15046;50.930;13.334;2023-09-07T10:19:37;7.88;;;3.47;;
27632;SDS011;15046;50.930;13.334;2023-09-07T10:22:04;6.28;;;3.60;;
27632;SDS011;15046;50.930;13.334;2023-09-07T10:24:32;5.68;;;3.70;;
27632;SDS011;15046;50.930;13.334;2023-09-07T10:27:02;7.28;;;3.28;;
27632;SDS011;15046;50.930;13.334;2023-09-07T10:29:45;10.90;;;3.35;;
27632;SDS011;15046;50.930;13.334;2023-09-07T10:32:11;5.18;;;3.50;;
27632;SDS011;15046;50.930;13.334;2023-09-07T10:34:40;6.55;;;3.42;;
27632;SDS011;15046;50.930;13.334;2023-09-07T10:37:12;4.83;;;3.20;;
27632;SDS011;15046;50.930;13.334;2023-09-07T10:39:40;4.80;;;3.05;;
27632;SDS011;15046;50.930;13.334;2023-09-07T10:42:21;4.75;;;3.60;;
27632;SDS011;15046;50.930;13.334;2023-09-07T10:44:49;4.68;;;3.60;;
27632;SDS011;15046;50.930;13.334;2023-09-07T10:47:15;5.13;;;3.45;;
27632;SDS011;15046;50.930;13.334;2023-09-07T10:49:41;7.72;;;3.35;;
27632;SDS011;15046;50.930;13.334;2023-09-07T10:52:08;5.53;;;3.85;;
27632;SDS011;15046;50.930;13.334;2023-09-07T10:54:33;6.25;;;3.58;;
27632;SDS011;15046;50.930;13.334;2023-09-07T10:57:07;6.13;;;3.92;;
27632;SDS011;15046;50.930;13.334;2023-09-07T10:59:34;6.30;;;3.42;;
27632;SDS011;15046;50.930;13.334;2023-09-07T11:02:03;5.05;;;3.28;;
27632;SDS011;15046;50.930;13.334;2023-09-07T11:04:30;6.75;;;3.40;;
27632;SDS011;15046;50.930;13.334;2023-09-07T11:06:56;5.00;;;3.10;;
27632;SDS011;15046;50.930;13.334;2023-09-07T11:09:22;4.80;;;3.35;;
27632;SDS011;15046;50.930;13.334;2023-09-07T11:11:48;4.65;;;2.90;;
27632;SDS011;15046;50.930;13.334;2023-09-07T11:14:14;5.35;;;3.50;;
27632;SDS011;15046;50.930;13.334;2023-09-07T11:16:40;6.95;;;3.85;;
27632;SDS011;15046;50.930;13.334;2023-09-07T11:19:06;4.68;;;3.28;;
27632;SDS011;15046;50.930;13.334;2023-09-07T11:21:36;4.72;;;3.30;;
27632;SDS011;15046;50.930;13.334;2023-09-07T11:24:02;3.97;;;2.88;;
27632;SDS011;15046;50.930;13.334;2023-09-07T11:26:43;11.10;;;3.60;;
27632;SDS011;15046;50.930;13.334;2023-09-07T11:29:14;5.82;;;3.10;;
27632;SDS011;15046;50.930;13.334;2023-09-07T11:31:40;4.25;;;3.00;;
27632;SDS011;15046;50.930;13.334;2023-09-07T11:34:12;4.50;;;2.97;;
27632;SDS011;15046;50.930;13.334;2023-09-07T11:36:39;4.43;;;2.72;;
27632;SDS011;15046;50.930;13.334;2023-09-07T11:39:06;5.07;;;2.92;;
27632;SDS011;15046;50.930;13.334;2023-09-07T11:41:38;4.43;;;2.78;;
27632;SDS011;15046;50.930;13.334;2023-09-07T11:44:06;5.70;;;3.03;;
27632;SDS011;15046;50.930;13.334;2023-09-07T11:46:32;5.00;;;3.08;;
27632;SDS011;15046;50.930;13.334;2023-09-07T11:48:58;4.78;;;3.10;;
27632;SDS011;15046;50.930;13.334;2023-09-07T11:51:24;4.00;;;3.00;;
27632;SDS011;15046;50.930;13.334;2023-09-07T11:53:50;4.25;;;2.70;;
27632;SDS011;15046;50.930;13.334;2023-09-07T11:56:16;8.00;;;3.25;;
27632;SDS011;15046;50.930;13.334;2023-09-07T11:58:42;4.38;;;2.67;;
27632;SDS011;15046;50.930;13.334;2023-09-07T12:01:09;5.28;;;2.80;;
27632;SDS011;15046;50.930;13.334;2023-09-07T12:03:35;5.50;;;3.00;;
27632;SDS011;15046;50.930;13.334;2023-09-07T12:06:00;4.80;;;3.03;;
27632;SDS011;15046;50.930;13.334;2023-09-07T12:08:28;4.85;;;3.15;;
27632;SDS011;15046;50.930;13.334;2023-09-07T12:10:53;4.20;;;2.80;;
27632;SDS011;15046;50.930;13.334;2023-09-07T12:13:19;5.45;;;3.15;;
27632;SDS011;15046;50.930;13.334;2023-09-07T12:15:45;5.65;;;2.83;;
27632;SDS011;15046;50.930;13.334;2023-09-07T12:18:11;5.13;;;3.10;;
27632;SDS011;15046;50.930;13.334;2023-09-07T12:20:36;6.75;;;2.67;;
27632;SDS011;15046;50.930;13.334;2023-09-07T12:23:02;5.65;;;3.20;;
27632;SDS011;15046;50.930;13.334;2023-09-07T12:25:28;4.45;;;2.80;;
27632;SDS011;15046;50.930;13.334;2023-09-07T12:27:54;4.90;;;3.15;;
27632;SDS011;15046;50.930;13.334;2023-09-07T12:30:21;5.82;;;3.20;;
27632;SDS011;15046;50.930;13.334;2023-09-07T12:32:49;4.32;;;3.08;;
27632;SDS011;15046;50.930;13.334;2023-09-07T12:35:15;5.65;;;3.13;;
27632;SDS011;15046;50.930;13.334;2023-09-07T12:37:41;6.38;;;3.28;;
27632;SDS011;15046;50.930;13.334;2023-09-07T12:40:07;9.88;;;3.53;;
27632;SDS011;15046;50.930;13.334;2023-09-07T12:42:40;5.40;;;3.10;;
27632;SDS011;15046;50.930;13.334;2023-09-07T12:45:10;5.30;;;2.95;;
27632;SDS011;15046;50.930;13.334;2023-09-07T12:47:37;4.35;;;2.85;;
27632;SDS011;15046;50.930;13.334;2023-09-07T12:50:04;6.50;;;3.13;;
27632;SDS011;15046;50.930;13.334;2023-09-07T12:52:30;4.55;;;3.03;;
27632;SDS011;15046;50.930;13.334;2023-09-07T12:54:56;6.60;;;3.53;;
27632;SDS011;15046;50.930;13.334;2023-09-07T12:57:22;5.13;;;3.20;;
27632;SDS011;15046;50.930;13.334;2023-09-07T12:59:48;4.88;;;3.03;;
27632;SDS011;15046;50.930;13.334;2023-09-07T13:02:14;4.80;;;3.40;;
27632;SDS011;15046;50.930;13.334;2023-09-07T13:04:40;4.63;;;2.55;;
27632;SDS011;15046;50.930;13.334;2023-09-07T13:07:06;6.22;;;3.53;;
27632;SDS011;15046;50.930;13.334;2023-09-07T13:09:31;5.45;;;2.80;;
27632;SDS011;15046;50.930;13.334;2023-09-07T13:11:57;4.30;;;2.92;;
27632;SDS011;15046;50.930;13.334;2023-09-07T13:14:23;6.07;;;3.80;;
27632;SDS011;15046;50.930;13.334;2023-09-07T13:16:49;5.90;;;3.33;;
27632;SDS011;15046;50.930;13.334;2023-09-07T13:19:16;7.00;;;3.38;;
27632;SDS011;15046;50.930;13.334;2023-09-07T13:21:42;6.68;;;3.53;;
27632;SDS011;15046;50.930;13.334;2023-09-07T13:24:08;4.72;;;3.00;;
27632;SDS011;15046;50.930;13.334;2023-09-07T13:26:36;5.43;;;2.97;;
27632;SDS011;15046;50.930;13.334;2023-09-07T13:29:02;4.72;;;3.10;;
27632;SDS011;15046;50.930;13.334;2023-09-07T13:31:28;6.35;;;3.10;;
27632;SDS011;15046;50.930;13.334;2023-09-07T13:33:53;6.75;;;3.33;;
27632;SDS011;15046;50.930;13.334;2023-09-07T13:36:19;5.88;;;3.80;;
27632;SDS011;15046;50.930;13.334;2023-09-07T13:38:45;5.38;;;3.20;;
27632;SDS011;15046;50.930;13.334;2023-09-07T13:41:11;5.72;;;3.30;;
27632;SDS011;15046;50.930;13.334;2023-09-07T13:43:36;4.45;;;3.25;;
27632;SDS011;15046;50.930;13.334;2023-09-07T13:46:02;7.57;;;3.35;;
27632;SDS011;15046;50.930;13.334;2023-09-07T13:48:28;6.25;;;3.28;;
27632;SDS011;15046;50.930;13.334;2023-09-07T13:50:55;6.90;;;3.40;;
27632;SDS011;15046;50.930;13.334;2023-09-07T13:53:21;6.93;;;3.17;;
27632;SDS011;15046;50.930;13.334;2023-09-07T13:55:47;7.63;;;3.75;;
27632;SDS011;15046;50.930;13.334;2023-09-07T13:58:12;4.45;;;3.38;;
27632;SDS011;15046;50.930;13.334;2023-09-07T14:00:38;6.85;;;3.20;;
27632;SDS011;15046;50.930;13.334;2023-09-07T14:03:04;6.78;;;3.63;;
27632;SDS011;15046;50.930;13.334;2023-09-07T14:05:30;5.57;;;3.42;;
27632;SDS011;15046;50.930;13.334;2023-09-07T14:07:55;5.07;;;3.40;;
27632;SDS011;15046;50.930;13.334;2023-09-07T14:10:22;6.18;;;3.50;;
27632;SDS011;15046;50.930;13.334;2023-09-07T14:12:48;6.57;;;3.53;;
27632;SDS011;15046;50.930;13.334;2023-09-07T14:15:14;4.95;;;3.85;;
27632;SDS011;15046;50.930;13.334;2023-09-07T14:17:40;9.32;;;6.13;;
27632;SDS011;15046;50.930;13.334;2023-09-07T14:20:06;6.70;;;3.75;;
27632;SDS011;15046;50.930;13.334;2023-09-07T14:22:32;6.80;;;3.78;;
27632;SDS011;15046;50.930;13.334;2023-09-07T14:24:58;6.22;;;3.65;;
27632;SDS011;15046;50.930;13.334;2023-09-07T14:27:24;6.07;;;3.83;;
27632;SDS011;15046;50.930;13.334;2023-09-07T14:29:51;4.63;;;3.20;;
27632;SDS011;15046;50.930;13.334;2023-09-07T14:32:17;5.28;;;3.28;;